Time;durP1;ratioP1;P1;durP2;ratioP2;P2;SDS_P1;SDS_P2;PMS_P1;PMS_P2;Temp;Humidity;BMP_temperature;BMP_pressure;BME280_temperature;BME280_humidity;BME280_pressure;Samples;Min_cycle;Max_cycle;Signal;HPM_P1;HPM_P2
2021/07/10 08:34:10;;;;;;;0.8;0.8;;;;;;;25.24;92.42773;95527.84;;;;
2021/07/10 08:35:11;;;;;;;0.8;0.8;;;;;;;25.24;92.42773;95527.84;;;;
2021/07/10 08:36:13;;;;;;;0.8;0.8;;;;;;;25.24;92.42773;95527.84;;;;
2021/07/10 08:37:14;;;;;;;0.8;0.8;;;;;;;25.24;92.42773;95527.84;;;;
2021/07/10 08:38:14;;;;;;;0.9;0.9;;;;;;;25.78;67.5918;95525.66;;;;
2021/07/10 08:39:15;;;;;;;0.9;0.9;;;;;;;25.78;67.5918;95525.66;;;;
2021/07/10 08:40:15;;;;;;;0.9;0.9;;;;;;;25.78;67.5918;95525.66;;;;
2021/07/10 08:41:17;;;;;;;0.9;0.9;;;;;;;25.78;67.5918;95525.66;;;;
2021/07/10 08:42:18;;;;;;;0.9;0.9;;;;;;;25.78;67.5918;95525.66;;;;
2021/07/10 08:43:19;;;;;;;0.9;0.9;;;;;;;25.78;67.5918;95525.66;;;;
2021/07/10 08:44:21;;;;;;;0.9;0.9;;;;;;;25.78;67.5918;95525.66;;;;
2021/07/10 08:45:21;;;;;;;0.9;0.9;;;;;;;25.78;67.5918;95525.66;;;;
2021/07/10 08:46:27;;;;;;;0.9;0.9;;;;;;;25.78;67.5918;95525.66;;;;
2021/07/10 08:47:28;;;;;;;0.9;0.9;;;;;;;25.78;67.5918;95525.66;;;;
2021/07/10 08:48:29;;;;;;;3.4;3.1;;;;;;;39.94;27.63672;95540.15;;;;
2021/07/10 08:49:30;;;;;;;3.4;3.1;;;;;;;39.94;27.63672;95540.15;;;;
2021/07/10 08:50:32;;;;;;;3.4;3.1;;;;;;;39.94;27.63672;95540.15;;;;
2021/07/10 08:51:34;;;;;;;3.4;3.1;;;;;;;39.94;27.63672;95540.15;;;;
2021/07/10 08:52:35;;;;;;;3.4;3.1;;;;;;;39.94;27.63672;95540.15;;;;
2021/07/10 08:53:36;;;;;;;3.4;3.1;;;;;;;39.94;27.63672;95540.15;;;;
2021/07/10 08:54:37;;;;;;;3.4;3.1;;;;;;;39.94;27.63672;95540.15;;;;
2021/07/10 08:55:38;;;;;;;3.4;3.1;;;;;;;39.94;27.63672;95540.15;;;;
2021/07/10 08:56:39;;;;;;;3.4;3.1;;;;;;;39.94;27.63672;95540.15;;;;
2021/07/10 08:57:40;;;;;;;3.4;3.1;;;;;;;39.94;27.63672;95540.15;;;;
2021/07/10 08:58:42;;;;;;;3.4;3.1;;;;;;;39.94;27.63672;95540.15;;;;
2021/07/10 08:59:43;;;;;;;2.1;2;;;;;;;34.55;90.3584;95515.62;;;;
2021/07/10 09:00:44;;;;;;;2.1;2;;;;;;;34.55;90.3584;95515.62;;;;
2021/07/10 09:01:46;;;;;;;2.1;2;;;;;;;34.55;90.3584;95515.62;;;;
2021/07/10 09:02:47;;;;;;;2.1;2;;;;;;;34.55;90.3584;95515.62;;;;
2021/07/10 09:03:49;;;;;;;2.1;2;;;;;;;34.55;90.3584;95515.62;;;;
2021/07/10 09:04:50;;;;;;;2.1;2;;;;;;;34.55;90.3584;95515.62;;;;
2021/07/10 09:05:50;;;;;;;2.1;2;;;;;;;34.55;90.3584;95515.62;;;;
2021/07/10 09:06:51;;;;;;;2.1;2;;;;;;;34.55;90.3584;95515.62;;;;
2021/07/10 09:07:52;;;;;;;2.1;2;;;;;;;34.55;90.3584;95515.62;;;;
2021/07/10 09:09:27;;;;;;;2.1;2;;;;;;;34.55;90.3584;95515.62;;;;
2021/07/10 09:10:45;;;;;;;2;1.9;;;;;;;33.17;100;95502.34;;;;
2021/07/10 09:11:48;;;;;;;2;1.9;;;;;;;33.17;100;95502.34;;;;
2021/07/10 09:13:04;;;;;;;2;1.9;;;;;;;33.17;100;95502.34;;;;
2021/07/10 09:14:05;;;;;;;2;1.9;;;;;;;33.17;100;95502.34;;;;
2021/07/10 09:15:06;;;;;;;2;1.9;;;;;;;33.17;100;95502.34;;;;
2021/07/10 09:16:16;;;;;;;2;1.9;;;;;;;33.17;100;95502.34;;;;
2021/07/10 09:17:19;;;;;;;2;1.9;;;;;;;33.17;100;95502.34;;;;
2021/07/10 09:18:23;;;;;;;2;1.9;;;;;;;33.17;100;95502.34;;;;
2021/07/10 09:19:23;;;;;;;2;1.9;;;;;;;33.17;100;95502.34;;;;
2021/07/10 09:20:24;;;;;;;1.3;1.2;;;;;;;33.48;100;95477.87;;;;
2021/07/10 09:21:28;;;;;;;1.3;1.2;;;;;;;33.48;100;95477.87;;;;
2021/07/10 09:22:39;;;;;;;1.3;1.2;;;;;;;33.48;100;95477.87;;;;
2021/07/10 09:23:39;;;;;;;1.3;1.2;;;;;;;33.48;100;95477.87;;;;
2021/07/10 09:24:44;;;;;;;1.3;1.2;;;;;;;33.48;100;95477.87;;;;
2021/07/10 09:25:46;;;;;;;1.3;1.2;;;;;;;33.48;100;95477.87;;;;
2021/07/10 09:26:47;;;;;;;1.3;1.2;;;;;;;33.48;100;95477.87;;;;
2021/07/10 09:27:49;;;;;;;1.3;1.2;;;;;;;33.48;100;95477.87;;;;
2021/07/10 09:28:51;;;;;;;1.3;1.2;;;;;;;33.48;100;95477.87;;;;
2021/07/10 09:30:12;;;;;;;1.3;1.2;;;;;;;33.48;100;95477.87;;;;
2021/07/10 09:31:13;;;;;;;34.15;32.75;;;;;;;34.59;99.28223;95477.01;;;;
2021/07/10 09:32:24;;;;;;;34.15;32.75;;;;;;;34.59;99.28223;95477.01;;;;
2021/07/10 09:33:25;;;;;;;34.15;32.75;;;;;;;34.59;99.28223;95477.01;;;;
2021/07/10 09:34:27;;;;;;;34.15;32.75;;;;;;;34.59;99.28223;95477.01;;;;
2021/07/10 09:35:30;;;;;;;34.15;32.75;;;;;;;34.59;99.28223;95477.01;;;;
2021/07/10 09:36:31;;;;;;;34.15;32.75;;;;;;;34.59;99.28223;95477.01;;;;
2021/07/10 09:37:34;;;;;;;34.15;32.75;;;;;;;34.59;99.28223;95477.01;;;;
2021/07/10 09:38:34;;;;;;;34.15;32.75;;;;;;;34.59;99.28223;95477.01;;;;
2021/07/10 09:39:35;;;;;;;34.15;32.75;;;;;;;34.59;99.28223;95477.01;;;;
2021/07/10 09:40:37;;;;;;;34.15;32.75;;;;;;;34.59;99.28223;95477.01;;;;
2021/07/10 09:41:38;;;;;;;34.15;32.75;;;;;;;34.59;99.28223;95477.01;;;;
2021/07/10 09:42:39;;;;;;;10.05;9.650001;;;;;;;34.54;94.82813;95474.13;;;;
2021/07/10 09:43:41;;;;;;;10.05;9.650001;;;;;;;34.54;94.82813;95474.13;;;;
2021/07/10 09:44:42;;;;;;;10.05;9.650001;;;;;;;34.54;94.82813;95474.13;;;;
2021/07/10 09:45:46;;;;;;;10.05;9.650001;;;;;;;34.54;94.82813;95474.13;;;;
2021/07/10 09:46:46;;;;;;;10.05;9.650001;;;;;;;34.54;94.82813;95474.13;;;;
2021/07/10 09:47:47;;;;;;;10.05;9.650001;;;;;;;34.54;94.82813;95474.13;;;;
2021/07/10 09:48:48;;;;;;;10.05;9.650001;;;;;;;34.54;94.82813;95474.13;;;;
2021/07/10 09:49:49;;;;;;;10.05;9.650001;;;;;;;34.54;94.82813;95474.13;;;;
2021/07/10 09:50:49;;;;;;;10.05;9.650001;;;;;;;34.54;94.82813;95474.13;;;;
2021/07/10 09:51:50;;;;;;;10.05;9.650001;;;;;;;34.54;94.82813;95474.13;;;;
2021/07/10 09:52:59;;;;;;;1.55;1.45;;;;;;;34.76;99.06055;95443.7;;;;
2021/07/10 09:54:00;;;;;;;1.55;1.45;;;;;;;34.76;99.06055;95443.7;;;;
2021/07/10 09:55:04;;;;;;;1.55;1.45;;;;;;;34.76;99.06055;95443.7;;;;
2021/07/10 09:56:08;;;;;;;1.55;1.45;;;;;;;34.76;99.06055;95443.7;;;;
2021/07/10 09:57:09;;;;;;;1.55;1.45;;;;;;;34.76;99.06055;95443.7;;;;
2021/07/10 09:58:13;;;;;;;1.55;1.45;;;;;;;34.76;99.06055;95443.7;;;;
2021/07/10 09:59:31;;;;;;;1.55;1.45;;;;;;;34.76;99.06055;95443.7;;;;
2021/07/10 10:00:39;;;;;;;1.55;1.45;;;;;;;34.76;99.06055;95443.7;;;;
2021/07/10 10:01:40;;;;;;;1.55;1.45;;;;;;;34.76;99.06055;95443.7;;;;
2021/07/10 10:02:40;;;;;;;1.55;1.45;;;;;;;34.76;99.06055;95443.7;;;;
2021/07/10 10:03:44;;;;;;;1;1;;;;;;;35.19;96.16406;95433.29;;;;
2021/07/10 10:04:44;;;;;;;1;1;;;;;;;35.19;96.16406;95433.29;;;;
2021/07/10 10:05:46;;;;;;;1;1;;;;;;;35.19;96.16406;95433.29;;;;
2021/07/10 10:06:46;;;;;;;1;1;;;;;;;35.19;96.16406;95433.29;;;;
2021/07/10 10:07:47;;;;;;;1;1;;;;;;;35.19;96.16406;95433.29;;;;
2021/07/10 10:08:49;;;;;;;1;1;;;;;;;35.19;96.16406;95433.29;;;;
2021/07/10 10:09:50;;;;;;;1;1;;;;;;;35.19;96.16406;95433.29;;;;
2021/07/10 10:10:56;;;;;;;1;1;;;;;;;35.19;96.16406;95433.29;;;;
2021/07/10 10:11:57;;;;;;;1;1;;;;;;;35.19;96.16406;95433.29;;;;
2021/07/10 10:13:00;;;;;;;1;1;;;;;;;35.19;96.16406;95433.29;;;;
2021/07/10 10:14:11;;;;;;;0.2;0.2;;;;;;;36.53;98.84082;95421.21;;;;
2021/07/10 10:15:12;;;;;;;0.2;0.2;;;;;;;36.53;98.84082;95421.21;;;;
2021/07/10 10:16:12;;;;;;;0.2;0.2;;;;;;;36.53;98.84082;95421.21;;;;
2021/07/10 10:17:14;;;;;;;0.2;0.2;;;;;;;36.53;98.84082;95421.21;;;;
2021/07/10 10:18:17;;;;;;;0.2;0.2;;;;;;;36.53;98.84082;95421.21;;;;
2021/07/10 10:19:20;;;;;;;0.2;0.2;;;;;;;36.53;98.84082;95421.21;;;;
2021/07/10 10:20:22;;;;;;;0.2;0.2;;;;;;;36.53;98.84082;95421.21;;;;
2021/07/10 10:21:23;;;;;;;0.2;0.2;;;;;;;36.53;98.84082;95421.21;;;;
2021/07/10 10:22:24;;;;;;;0.2;0.2;;;;;;;36.53;98.84082;95421.21;;;;
2021/07/10 10:23:25;;;;;;;0.2;0.2;;;;;;;36.53;98.84082;95421.21;;;;
2021/07/10 10:24:25;;;;;;;0.6;0.6;;;;;;;36.13;96.26953;95418.64;;;;
2021/07/10 10:25:28;;;;;;;0.6;0.6;;;;;;;36.13;96.26953;95418.64;;;;
2021/07/10 10:26:29;;;;;;;0.6;0.6;;;;;;;36.13;96.26953;95418.64;;;;
2021/07/10 10:27:30;;;;;;;0.6;0.6;;;;;;;36.13;96.26953;95418.64;;;;
2021/07/10 10:28:31;;;;;;;0.6;0.6;;;;;;;36.13;96.26953;95418.64;;;;
2021/07/10 10:29:33;;;;;;;0.6;0.6;;;;;;;36.13;96.26953;95418.64;;;;
2021/07/10 10:30:35;;;;;;;0.6;0.6;;;;;;;36.13;96.26953;95418.64;;;;
2021/07/10 10:31:36;;;;;;;0.6;0.6;;;;;;;36.13;96.26953;95418.64;;;;
2021/07/10 10:32:37;;;;;;;0.6;0.6;;;;;;;36.13;96.26953;95418.64;;;;
2021/07/10 10:33:39;;;;;;;0.6;0.6;;;;;;;36.13;96.26953;95418.64;;;;
2021/07/10 10:34:39;;;;;;;0.6;0.6;;;;;;;36.13;96.26953;95418.64;;;;
2021/07/10 10:35:40;;;;;;;0.7;0.7;;;;;;;35.39;100;95396.11;;;;
2021/07/10 10:36:41;;;;;;;0.7;0.7;;;;;;;35.39;100;95396.11;;;;
2021/07/10 10:37:45;;;;;;;0.7;0.7;;;;;;;35.39;100;95396.11;;;;
2021/07/10 10:38:46;;;;;;;0.7;0.7;;;;;;;35.39;100;95396.11;;;;
2021/07/10 10:39:46;;;;;;;0.7;0.7;;;;;;;35.39;100;95396.11;;;;
2021/07/10 10:40:48;;;;;;;0.7;0.7;;;;;;;35.39;100;95396.11;;;;
2021/07/10 10:41:50;;;;;;;0.7;0.7;;;;;;;35.39;100;95396.11;;;;
2021/07/10 10:42:54;;;;;;;0.7;0.7;;;;;;;35.39;100;95396.11;;;;
2021/07/10 10:43:58;;;;;;;0.7;0.7;;;;;;;35.39;100;95396.11;;;;
2021/07/10 10:45:02;;;;;;;0.7;0.7;;;;;;;35.39;100;95396.11;;;;
2021/07/10 10:46:04;;;;;;;0.9;0.9;;;;;;;33.66;100;95376.9;;;;
2021/07/10 10:47:13;;;;;;;0.9;0.9;;;;;;;33.66;100;95376.9;;;;
2021/07/10 10:48:14;;;;;;;0.9;0.9;;;;;;;33.66;100;95376.9;;;;
2021/07/10 10:49:17;;;;;;;0.9;0.9;;;;;;;33.66;100;95376.9;;;;
2021/07/10 10:50:55;;;;;;;0.9;0.9;;;;;;;33.66;100;95376.9;;;;
2021/07/10 10:51:56;;;;;;;0.9;0.9;;;;;;;33.66;100;95376.9;;;;
2021/07/10 10:53:16;;;;;;;0.9;0.9;;;;;;;33.66;100;95376.9;;;;
2021/07/10 10:54:22;;;;;;;0.9;0.9;;;;;;;33.66;100;95376.9;;;;
2021/07/10 10:55:26;;;;;;;0.9;0.9;;;;;;;33.66;100;95376.9;;;;
2021/07/10 10:56:35;;;;;;;0.5;0.5;;;;;;;32.84;100;95366.46;;;;
2021/07/10 10:57:37;;;;;;;0.5;0.5;;;;;;;32.84;100;95366.46;;;;
2021/07/10 10:58:41;;;;;;;0.5;0.5;;;;;;;32.84;100;95366.46;;;;
2021/07/10 10:59:42;;;;;;;0.5;0.5;;;;;;;32.84;100;95366.46;;;;
2021/07/10 11:00:44;;;;;;;0.5;0.5;;;;;;;32.84;100;95366.46;;;;
2021/07/10 11:01:46;;;;;;;0.5;0.5;;;;;;;32.84;100;95366.46;;;;
2021/07/10 11:02:46;;;;;;;0.5;0.5;;;;;;;32.84;100;95366.46;;;;
2021/07/10 11:03:54;;;;;;;0.5;0.5;;;;;;;32.84;100;95366.46;;;;
2021/07/10 11:04:55;;;;;;;0.5;0.5;;;;;;;32.84;100;95366.46;;;;
2021/07/10 11:05:57;;;;;;;0.5;0.5;;;;;;;32.84;100;95366.46;;;;
2021/07/10 11:06:58;;;;;;;0.5;0.5;;;;;;;32.84;100;95366.46;;;;
2021/07/10 11:08:21;;;;;;;0.5;0.3;;;;;;;32.54;100;95367.54;;;;
2021/07/10 11:09:26;;;;;;;0.5;0.3;;;;;;;32.54;100;95367.54;;;;
2021/07/10 11:11:09;;;;;;;0.5;0.3;;;;;;;32.54;100;95367.54;;;;
2021/07/10 11:12:27;;;;;;;0.5;0.3;;;;;;;32.54;100;95367.54;;;;
2021/07/10 11:13:52;;;;;;;0.5;0.3;;;;;;;32.54;100;95367.54;;;;
2021/07/10 11:14:58;;;;;;;0.5;0.3;;;;;;;32.54;100;95367.54;;;;
2021/07/10 11:16:38;;;;;;;0.5;0.3;;;;;;;32.54;100;95367.54;;;;
2021/07/10 11:18:11;;;;;;;0.95;0.6;;;;;;;31.52;100;95360.72;;;;
2021/07/10 11:19:28;;;;;;;0.95;0.6;;;;;;;31.52;100;95360.72;;;;
2021/07/10 11:20:53;;;;;;;0.95;0.6;;;;;;;31.52;100;95360.72;;;;
2021/07/10 11:21:54;;;;;;;0.95;0.6;;;;;;;31.52;100;95360.72;;;;
2021/07/10 11:22:56;;;;;;;0.95;0.6;;;;;;;31.52;100;95360.72;;;;
2021/07/10 11:23:58;;;;;;;0.95;0.6;;;;;;;31.52;100;95360.72;;;;
2021/07/10 11:25:20;;;;;;;0.95;0.6;;;;;;;31.52;100;95360.72;;;;
2021/07/10 11:26:57;;;;;;;0.95;0.6;;;;;;;31.52;100;95360.72;;;;
2021/07/10 11:28:30;;;;;;;0.95;0.6;;;;;;;31.52;100;95360.72;;;;
2021/07/10 11:29:38;;;;;;;0.95;0.6;;;;;;;31.52;100;95360.72;;;;
2021/07/10 11:30:41;;;;;;;0.95;0.6;;;;;;;31.52;100;95360.72;;;;
2021/07/10 11:31:44;;;;;;;0.95;0.6;;;;;;;31.52;100;95360.72;;;;
2021/07/10 11:32:45;;;;;;;0.95;0.6;;;;;;;31.52;100;95360.72;;;;
2021/07/10 11:33:46;;;;;;;0.95;0.6;;;;;;;31.52;100;95360.72;;;;
2021/07/10 11:35:32;;;;;;;0.95;0.6;;;;;;;31.52;100;95360.72;;;;
2021/07/10 11:36:35;;;;;;;0.95;0.6;;;;;;;31.52;100;95360.72;;;;
2021/07/10 11:37:38;;;;;;;0.95;0.6;;;;;;;31.52;100;95360.72;;;;
2021/07/10 11:38:41;;;;;;;0.95;0.6;;;;;;;31.52;100;95360.72;;;;
2021/07/10 11:39:42;;;;;;;0.6;0.5;;;;;;;30.8;100;95326.95;;;;
2021/07/10 11:40:45;;;;;;;0.6;0.5;;;;;;;30.8;100;95326.95;;;;
2021/07/10 11:41:46;;;;;;;0.6;0.5;;;;;;;30.8;100;95326.95;;;;
2021/07/10 11:42:47;;;;;;;0.6;0.5;;;;;;;30.8;100;95326.95;;;;
2021/07/10 11:43:49;;;;;;;0.6;0.5;;;;;;;30.8;100;95326.95;;;;
2021/07/10 11:44:49;;;;;;;0.6;0.5;;;;;;;30.8;100;95326.95;;;;
2021/07/10 11:45:52;;;;;;;0.6;0.5;;;;;;;30.8;100;95326.95;;;;
2021/07/10 11:46:54;;;;;;;0.6;0.5;;;;;;;30.8;100;95326.95;;;;
2021/07/10 11:48:10;;;;;;;0.6;0.5;;;;;;;30.8;100;95326.95;;;;
2021/07/10 11:49:21;;;;;;;0.6;0.5;;;;;;;30.8;100;95326.95;;;;
2021/07/10 11:50:40;;;;;;;0.4;0.4;;;;;;;30.38;100;95311.43;;;;
2021/07/10 11:51:42;;;;;;;0.4;0.4;;;;;;;30.38;100;95311.43;;;;
2021/07/10 11:52:46;;;;;;;0.4;0.4;;;;;;;30.38;100;95311.43;;;;
2021/07/10 11:54:04;;;;;;;0.4;0.4;;;;;;;30.38;100;95311.43;;;;
2021/07/10 11:55:05;;;;;;;0.4;0.4;;;;;;;30.38;100;95311.43;;;;
2021/07/10 11:56:08;;;;;;;0.4;0.4;;;;;;;30.38;100;95311.43;;;;
2021/07/10 11:57:10;;;;;;;0.4;0.4;;;;;;;30.38;100;95311.43;;;;
2021/07/10 11:58:11;;;;;;;0.4;0.4;;;;;;;30.38;100;95311.43;;;;
2021/07/10 11:59:14;;;;;;;0.4;0.4;;;;;;;30.38;100;95311.43;;;;
2021/07/10 12:00:15;;;;;;;0.4;0.4;;;;;;;30.38;100;95311.43;;;;
2021/07/10 12:01:16;;;;;;;0.5;0.5;;;;;;;30.51;100;95295.79;;;;
2021/07/10 12:02:23;;;;;;;0.5;0.5;;;;;;;30.51;100;95295.79;;;;
2021/07/10 12:03:27;;;;;;;0.5;0.5;;;;;;;30.51;100;95295.79;;;;
2021/07/10 12:04:28;;;;;;;0.5;0.5;;;;;;;30.51;100;95295.79;;;;
2021/07/10 12:05:30;;;;;;;0.5;0.5;;;;;;;30.51;100;95295.79;;;;
2021/07/10 12:06:34;;;;;;;0.5;0.5;;;;;;;30.51;100;95295.79;;;;
2021/07/10 12:07:35;;;;;;;0.5;0.5;;;;;;;30.51;100;95295.79;;;;
2021/07/10 12:08:38;;;;;;;0.5;0.5;;;;;;;30.51;100;95295.79;;;;
2021/07/10 12:09:38;;;;;;;0.5;0.5;;;;;;;30.51;100;95295.79;;;;
2021/07/10 12:10:49;;;;;;;0.5;0.5;;;;;;;30.51;100;95295.79;;;;
2021/07/10 12:11:52;;;;;;;0.7;0.7;;;;;;;30.01;100;95278;;;;
2021/07/10 12:12:54;;;;;;;0.7;0.7;;;;;;;30.01;100;95278;;;;
2021/07/10 12:13:56;;;;;;;0.7;0.7;;;;;;;30.01;100;95278;;;;
2021/07/10 12:15:03;;;;;;;0.7;0.7;;;;;;;30.01;100;95278;;;;
2021/07/10 12:16:05;;;;;;;0.7;0.7;;;;;;;30.01;100;95278;;;;
2021/07/10 12:17:06;;;;;;;0.7;0.7;;;;;;;30.01;100;95278;;;;
2021/07/10 12:18:09;;;;;;;0.7;0.7;;;;;;;30.01;100;95278;;;;
2021/07/10 12:19:12;;;;;;;0.7;0.7;;;;;;;30.01;100;95278;;;;
2021/07/10 12:20:15;;;;;;;0.7;0.7;;;;;;;30.01;100;95278;;;;
2021/07/10 12:21:19;;;;;;;0.7;0.7;;;;;;;30.01;100;95278;;;;
2021/07/10 12:22:21;;;;;;;0.5;0.5;;;;;;;30.15;100;95269.02;;;;
2021/07/10 12:23:22;;;;;;;0.5;0.5;;;;;;;30.15;100;95269.02;;;;
2021/07/10 12:24:25;;;;;;;0.5;0.5;;;;;;;30.15;100;95269.02;;;;
2021/07/10 12:25:26;;;;;;;0.5;0.5;;;;;;;30.15;100;95269.02;;;;
2021/07/10 12:26:28;;;;;;;0.5;0.5;;;;;;;30.15;100;95269.02;;;;
2021/07/10 12:27:29;;;;;;;0.5;0.5;;;;;;;30.15;100;95269.02;;;;
2021/07/10 12:28:30;;;;;;;0.5;0.5;;;;;;;30.15;100;95269.02;;;;
2021/07/10 12:29:35;;;;;;;0.5;0.5;;;;;;;30.15;100;95269.02;;;;
2021/07/10 12:30:35;;;;;;;0.5;0.5;;;;;;;30.15;100;95269.02;;;;
2021/07/10 12:31:41;;;;;;;0.5;0.5;;;;;;;30.15;100;95269.02;;;;
2021/07/10 12:32:41;;;;;;;0.4;0.4;;;;;;;30.27;100;95256.02;;;;
2021/07/10 12:33:42;;;;;;;0.4;0.4;;;;;;;30.27;100;95256.02;;;;
2021/07/10 12:34:45;;;;;;;0.4;0.4;;;;;;;30.27;100;95256.02;;;;
2021/07/10 12:35:46;;;;;;;0.4;0.4;;;;;;;30.27;100;95256.02;;;;
2021/07/10 12:37:00;;;;;;;0.4;0.4;;;;;;;30.27;100;95256.02;;;;
2021/07/10 12:38:01;;;;;;;0.4;0.4;;;;;;;30.27;100;95256.02;;;;
2021/07/10 12:39:09;;;;;;;0.4;0.4;;;;;;;30.27;100;95256.02;;;;
2021/07/10 12:40:13;;;;;;;0.4;0.4;;;;;;;30.27;100;95256.02;;;;
2021/07/10 12:41:13;;;;;;;0.4;0.4;;;;;;;30.27;100;95256.02;;;;
2021/07/10 12:42:20;;;;;;;0.4;0.4;;;;;;;30.27;100;95256.02;;;;
2021/07/10 12:43:20;;;;;;;0.75;0.4;;;;;;;30.5;100;95257.14;;;;
2021/07/10 12:44:23;;;;;;;0.75;0.4;;;;;;;30.5;100;95257.14;;;;
2021/07/10 12:45:27;;;;;;;0.75;0.4;;;;;;;30.5;100;95257.14;;;;
2021/07/10 12:46:28;;;;;;;0.75;0.4;;;;;;;30.5;100;95257.14;;;;
2021/07/10 12:47:43;;;;;;;0.75;0.4;;;;;;;30.5;100;95257.14;;;;
2021/07/10 12:48:43;;;;;;;0.75;0.4;;;;;;;30.5;100;95257.14;;;;
2021/07/10 12:49:46;;;;;;;0.75;0.4;;;;;;;30.5;100;95257.14;;;;
2021/07/10 12:50:49;;;;;;;0.75;0.4;;;;;;;30.5;100;95257.14;;;;
2021/07/10 12:51:49;;;;;;;0.75;0.4;;;;;;;30.5;100;95257.14;;;;
2021/07/10 12:52:57;;;;;;;0.75;0.4;;;;;;;30.5;100;95257.14;;;;
2021/07/10 12:53:58;;;;;;;0.3;0.3;;;;;;;29.96;100;95254.19;;;;
2021/07/10 12:55:05;;;;;;;0.3;0.3;;;;;;;29.96;100;95254.19;;;;
2021/07/10 12:56:11;;;;;;;0.3;0.3;;;;;;;29.96;100;95254.19;;;;
2021/07/10 12:57:15;;;;;;;0.3;0.3;;;;;;;29.96;100;95254.19;;;;
2021/07/10 12:58:33;;;;;;;0.3;0.3;;;;;;;29.96;100;95254.19;;;;
2021/07/10 12:59:39;;;;;;;0.3;0.3;;;;;;;29.96;100;95254.19;;;;
2021/07/10 13:00:46;;;;;;;0.3;0.3;;;;;;;29.96;100;95254.19;;;;
2021/07/10 13:01:46;;;;;;;0.3;0.3;;;;;;;29.96;100;95254.19;;;;
2021/07/10 13:02:48;;;;;;;0.3;0.3;;;;;;;29.96;100;95254.19;;;;
2021/07/10 13:03:54;;;;;;;0.3;0.3;;;;;;;29.96;100;95254.19;;;;
2021/07/10 13:04:56;;;;;;;0.3;0.3;;;;;;;30.67;100;95244.61;;;;
2021/07/10 13:05:58;;;;;;;0.3;0.3;;;;;;;30.67;100;95244.61;;;;
2021/07/10 13:07:00;;;;;;;0.3;0.3;;;;;;;30.67;100;95244.61;;;;
2021/07/10 13:08:01;;;;;;;0.3;0.3;;;;;;;30.67;100;95244.61;;;;
2021/07/10 13:09:11;;;;;;;0.3;0.3;;;;;;;30.67;100;95244.61;;;;
2021/07/10 13:10:12;;;;;;;0.3;0.3;;;;;;;30.67;100;95244.61;;;;
2021/07/10 13:11:31;;;;;;;0.3;0.3;;;;;;;30.67;100;95244.61;;;;
2021/07/10 13:12:45;;;;;;;0.3;0.3;;;;;;;30.67;100;95244.61;;;;
2021/07/10 13:13:54;;;;;;;0.3;0.3;;;;;;;30.67;100;95244.61;;;;
2021/07/10 13:14:54;;;;;;;0.3;0.3;;;;;;;30.67;100;95244.61;;;;
2021/07/10 13:16:00;;;;;;;0.35;0.2;;;;;;;31.59;100;95226.84;;;;
2021/07/10 13:17:04;;;;;;;0.35;0.2;;;;;;;31.59;100;95226.84;;;;
2021/07/10 13:18:13;;;;;;;0.35;0.2;;;;;;;31.59;100;95226.84;;;;
2021/07/10 13:19:17;;;;;;;0.35;0.2;;;;;;;31.59;100;95226.84;;;;
2021/07/10 13:20:30;;;;;;;0.35;0.2;;;;;;;31.59;100;95226.84;;;;
2021/07/10 13:21:31;;;;;;;0.35;0.2;;;;;;;31.59;100;95226.84;;;;
2021/07/10 13:22:34;;;;;;;0.35;0.2;;;;;;;31.59;100;95226.84;;;;
2021/07/10 13:23:43;;;;;;;0.35;0.2;;;;;;;31.59;100;95226.84;;;;
2021/07/10 13:24:50;;;;;;;0.35;0.2;;;;;;;31.59;100;95226.84;;;;
2021/07/10 13:26:08;;;;;;;0.5;0.4;;;;;;;32.68;100;95212.95;;;;
2021/07/10 13:27:11;;;;;;;0.5;0.4;;;;;;;32.68;100;95212.95;;;;
2021/07/10 13:28:11;;;;;;;0.5;0.4;;;;;;;32.68;100;95212.95;;;;
2021/07/10 13:29:45;;;;;;;0.5;0.4;;;;;;;32.68;100;95212.95;;;;
2021/07/10 13:30:46;;;;;;;0.5;0.4;;;;;;;32.68;100;95212.95;;;;
2021/07/10 13:31:46;;;;;;;0.5;0.4;;;;;;;32.68;100;95212.95;;;;
2021/07/10 13:32:54;;;;;;;0.5;0.4;;;;;;;32.68;100;95212.95;;;;
2021/07/10 13:33:56;;;;;;;0.5;0.4;;;;;;;32.68;100;95212.95;;;;
2021/07/10 13:35:01;;;;;;;0.5;0.4;;;;;;;32.68;100;95212.95;;;;
2021/07/10 13:36:05;;;;;;;0.5;0.4;;;;;;;32.68;100;95212.95;;;;
2021/07/10 13:37:12;;;;;;;0.5;0.5;;;;;;;32.9;100;95201.28;;;;
2021/07/10 13:38:12;;;;;;;0.5;0.5;;;;;;;32.9;100;95201.28;;;;
2021/07/10 13:39:14;;;;;;;0.5;0.5;;;;;;;32.9;100;95201.28;;;;
2021/07/10 13:40:16;;;;;;;0.5;0.5;;;;;;;32.9;100;95201.28;;;;
2021/07/10 13:41:18;;;;;;;0.5;0.5;;;;;;;32.9;100;95201.28;;;;
2021/07/10 13:42:22;;;;;;;0.5;0.5;;;;;;;32.9;100;95201.28;;;;
2021/07/10 13:43:24;;;;;;;0.5;0.5;;;;;;;32.9;100;95201.28;;;;
2021/07/10 13:44:25;;;;;;;0.5;0.5;;;;;;;32.9;100;95201.28;;;;
2021/07/10 13:45:28;;;;;;;0.5;0.5;;;;;;;32.9;100;95201.28;;;;
2021/07/10 13:46:30;;;;;;;0.5;0.5;;;;;;;32.9;100;95201.28;;;;
2021/07/10 13:47:33;;;;;;;0.7;0.5;;;;;;;34.3;100;95199.83;;;;
2021/07/10 13:48:33;;;;;;;0.7;0.5;;;;;;;34.3;100;95199.83;;;;
2021/07/10 13:49:34;;;;;;;0.7;0.5;;;;;;;34.3;100;95199.83;;;;
2021/07/10 13:50:36;;;;;;;0.7;0.5;;;;;;;34.3;100;95199.83;;;;
2021/07/10 13:51:38;;;;;;;0.7;0.5;;;;;;;34.3;100;95199.83;;;;
2021/07/10 13:52:46;;;;;;;0.7;0.5;;;;;;;34.3;100;95199.83;;;;
2021/07/10 13:53:46;;;;;;;0.7;0.5;;;;;;;34.3;100;95199.83;;;;
2021/07/10 13:54:47;;;;;;;0.7;0.5;;;;;;;34.3;100;95199.83;;;;
2021/07/10 13:55:49;;;;;;;0.7;0.5;;;;;;;34.3;100;95199.83;;;;
2021/07/10 13:56:50;;;;;;;0.7;0.5;;;;;;;34.3;100;95199.83;;;;
2021/07/10 13:58:08;;;;;;;0.5;0.5;;;;;;;35.34;100;95180.8;;;;
2021/07/10 13:59:23;;;;;;;0.5;0.5;;;;;;;35.34;100;95180.8;;;;
2021/07/10 14:00:23;;;;;;;0.5;0.5;;;;;;;35.34;100;95180.8;;;;
2021/07/10 14:01:25;;;;;;;0.5;0.5;;;;;;;35.34;100;95180.8;;;;
2021/07/10 14:02:26;;;;;;;0.5;0.5;;;;;;;35.34;100;95180.8;;;;
2021/07/10 14:03:29;;;;;;;0.5;0.5;;;;;;;35.34;100;95180.8;;;;
2021/07/10 14:04:30;;;;;;;0.5;0.5;;;;;;;35.34;100;95180.8;;;;
2021/07/10 14:05:30;;;;;;;0.5;0.5;;;;;;;35.34;100;95180.8;;;;
2021/07/10 14:06:33;;;;;;;0.5;0.5;;;;;;;35.34;100;95180.8;;;;
2021/07/10 14:07:33;;;;;;;0.5;0.5;;;;;;;35.34;100;95180.8;;;;
2021/07/10 14:08:37;;;;;;;0.6;0.6;;;;;;;35.99;100;95171.56;;;;
2021/07/10 14:09:37;;;;;;;0.6;0.6;;;;;;;35.99;100;95171.56;;;;
2021/07/10 14:10:38;;;;;;;0.6;0.6;;;;;;;35.99;100;95171.56;;;;
2021/07/10 14:11:40;;;;;;;0.6;0.6;;;;;;;35.99;100;95171.56;;;;
2021/07/10 14:12:40;;;;;;;0.6;0.6;;;;;;;35.99;100;95171.56;;;;
2021/07/10 14:13:42;;;;;;;0.6;0.6;;;;;;;35.99;100;95171.56;;;;
2021/07/10 14:14:43;;;;;;;0.6;0.6;;;;;;;35.99;100;95171.56;;;;
2021/07/10 14:15:43;;;;;;;0.6;0.6;;;;;;;35.99;100;95171.56;;;;
2021/07/10 14:16:47;;;;;;;0.6;0.6;;;;;;;35.99;100;95171.56;;;;
2021/07/10 14:17:47;;;;;;;0.6;0.6;;;;;;;35.99;100;95171.56;;;;
2021/07/10 14:18:49;;;;;;;0.6;0.6;;;;;;;35.99;100;95171.56;;;;
2021/07/10 14:19:49;;;;;;;1.2;1.1;;;;;;;36.12;94.46387;95167.75;;;;
2021/07/10 14:20:50;;;;;;;1.2;1.1;;;;;;;36.12;94.46387;95167.75;;;;
2021/07/10 14:21:53;;;;;;;1.2;1.1;;;;;;;36.12;94.46387;95167.75;;;;
2021/07/10 14:22:54;;;;;;;1.2;1.1;;;;;;;36.12;94.46387;95167.75;;;;
2021/07/10 14:23:55;;;;;;;1.2;1.1;;;;;;;36.12;94.46387;95167.75;;;;
2021/07/10 14:24:56;;;;;;;1.2;1.1;;;;;;;36.12;94.46387;95167.75;;;;
2021/07/10 14:25:57;;;;;;;1.2;1.1;;;;;;;36.12;94.46387;95167.75;;;;
2021/07/10 14:26:59;;;;;;;1.2;1.1;;;;;;;36.12;94.46387;95167.75;;;;
2021/07/10 14:27:59;;;;;;;1.2;1.1;;;;;;;36.12;94.46387;95167.75;;;;
2021/07/10 14:29:01;;;;;;;1.2;1.1;;;;;;;36.12;94.46387;95167.75;;;;
2021/07/10 14:30:02;;;;;;;1.45;1.3;;;;;;;35.45;92.08887;95162.02;;;;
2021/07/10 14:31:04;;;;;;;1.45;1.3;;;;;;;35.45;92.08887;95162.02;;;;
2021/07/10 14:32:05;;;;;;;1.45;1.3;;;;;;;35.45;92.08887;95162.02;;;;
2021/07/10 14:33:07;;;;;;;1.45;1.3;;;;;;;35.45;92.08887;95162.02;;;;
2021/07/10 14:34:08;;;;;;;1.45;1.3;;;;;;;35.45;92.08887;95162.02;;;;
2021/07/10 14:35:08;;;;;;;1.45;1.3;;;;;;;35.45;92.08887;95162.02;;;;
2021/07/10 14:36:11;;;;;;;1.45;1.3;;;;;;;35.45;92.08887;95162.02;;;;
2021/07/10 14:37:11;;;;;;;1.45;1.3;;;;;;;35.45;92.08887;95162.02;;;;
2021/07/10 14:38:12;;;;;;;1.45;1.3;;;;;;;35.45;92.08887;95162.02;;;;
2021/07/10 14:39:13;;;;;;;1.45;1.3;;;;;;;35.45;92.08887;95162.02;;;;
2021/07/10 14:40:13;;;;;;;1.45;1.3;;;;;;;35.45;92.08887;95162.02;;;;
2021/07/10 14:41:17;;;;;;;1.5;1.4;;;;;;;35.15;88.29395;95154.47;;;;
2021/07/10 14:42:17;;;;;;;1.5;1.4;;;;;;;35.15;88.29395;95154.47;;;;
2021/07/10 14:43:18;;;;;;;1.5;1.4;;;;;;;35.15;88.29395;95154.47;;;;
2021/07/10 14:44:19;;;;;;;1.5;1.4;;;;;;;35.15;88.29395;95154.47;;;;
2021/07/10 14:45:19;;;;;;;1.5;1.4;;;;;;;35.15;88.29395;95154.47;;;;
2021/07/10 14:46:21;;;;;;;1.5;1.4;;;;;;;35.15;88.29395;95154.47;;;;
2021/07/10 14:47:22;;;;;;;1.5;1.4;;;;;;;35.15;88.29395;95154.47;;;;
2021/07/10 14:48:22;;;;;;;1.5;1.4;;;;;;;35.15;88.29395;95154.47;;;;
2021/07/10 14:49:23;;;;;;;1.5;1.4;;;;;;;35.15;88.29395;95154.47;;;;
2021/07/10 14:50:23;;;;;;;1.5;1.4;;;;;;;35.15;88.29395;95154.47;;;;
2021/07/10 14:51:26;;;;;;;1.95;1.8;;;;;;;34.41;85.54199;95146.02;;;;
2021/07/10 14:52:26;;;;;;;1.95;1.8;;;;;;;34.41;85.54199;95146.02;;;;
2021/07/10 14:53:27;;;;;;;1.95;1.8;;;;;;;34.41;85.54199;95146.02;;;;
2021/07/10 14:54:27;;;;;;;1.95;1.8;;;;;;;34.41;85.54199;95146.02;;;;
2021/07/10 14:55:28;;;;;;;1.95;1.8;;;;;;;34.41;85.54199;95146.02;;;;
2021/07/10 14:56:28;;;;;;;1.95;1.8;;;;;;;34.41;85.54199;95146.02;;;;
2021/07/10 14:57:29;;;;;;;1.95;1.8;;;;;;;34.41;85.54199;95146.02;;;;
2021/07/10 14:58:29;;;;;;;1.95;1.8;;;;;;;34.41;85.54199;95146.02;;;;
2021/07/10 14:59:30;;;;;;;1.95;1.8;;;;;;;34.41;85.54199;95146.02;;;;
2021/07/10 15:00:31;;;;;;;1.95;1.8;;;;;;;34.41;85.54199;95146.02;;;;
2021/07/10 15:01:31;;;;;;;1.95;1.8;;;;;;;34.41;85.54199;95146.02;;;;
2021/07/10 15:02:32;;;;;;;2.5;2.3;;;;;;;33.8;88.49707;95138.33;;;;
2021/07/10 15:03:32;;;;;;;2.5;2.3;;;;;;;33.8;88.49707;95138.33;;;;
2021/07/10 15:04:33;;;;;;;2.5;2.3;;;;;;;33.8;88.49707;95138.33;;;;